sensor_id;sensor_type;location;lat;lon;timestamp;pressure;altitude;pressure_sealevel;temperature;humidity
84936;BME280;75210;52.210;20.902;2024-01-30T00:00:52;102095.28;;;1.13;82.73
84936;BME280;75210;52.210;20.902;2024-01-30T00:01:52;102114.44;;;1.18;83.39
84936;BME280;75210;52.210;20.902;2024-01-30T00:02:53;102104.00;;;1.15;83.24
84936;BME280;75210;52.210;20.902;2024-01-30T00:03:53;102078.69;;;1.01;83.17
84936;BME280;75210;52.210;20.902;2024-01-30T00:04:56;102080.50;;;1.07;83.09
84936;BME280;75210;52.210;20.902;2024-01-30T00:05:56;102010.56;;;0.63;82.83
84936;BME280;75210;52.210;20.902;2024-01-30T00:07:00;102048.13;;;0.84;82.92
84936;BME280;75210;52.210;20.902;2024-01-30T00:08:00;102119.69;;;1.21;82.81
84936;BME280;75210;52.210;20.902;2024-01-30T00:09:02;102092.72;;;1.14;83.31
84936;BME280;75210;52.210;20.902;2024-01-30T00:10:03;102074.34;;;0.99;83.15
84936;BME280;75210;52.210;20.902;2024-01-30T00:11:04;102078.53;;;0.91;83.19
84936;BME280;75210;52.210;20.902;2024-01-30T00:12:05;102108.28;;;1.13;83.59
84936;BME280;75210;52.210;20.902;2024-01-30T00:13:05;102104.13;;;1.22;82.89
84936;BME280;75210;52.210;20.902;2024-01-30T00:14:08;102096.22;;;1.16;83.07
84936;BME280;75210;52.210;20.902;2024-01-30T00:15:09;102097.94;;;1.16;82.98
84936;BME280;75210;52.210;20.902;2024-01-30T00:16:24;102097.94;;;1.14;82.95
84936;BME280;75210;52.210;20.902;2024-01-30T00:17:24;102035.97;;;0.81;83.66
84936;BME280;75210;52.210;20.902;2024-01-30T00:18:25;102093.63;;;1.16;83.16
84936;BME280;75210;52.210;20.902;2024-01-30T00:19:25;102092.78;;;1.17;82.78
84936;BME280;75210;52.210;20.902;2024-01-30T00:20:26;102081.31;;;1.03;83.22
84936;BME280;75210;52.210;20.902;2024-01-30T00:21:26;102081.28;;;1.01;83.47
84936;BME280;75210;52.210;20.902;2024-01-30T00:22:26;102095.28;;;1.13;82.88
84936;BME280;75210;52.210;20.902;2024-01-30T00:23:27;102048.13;;;0.84;83.29
84936;BME280;75210;52.210;20.902;2024-01-30T00:24:29;102024.56;;;0.71;82.72
84936;BME280;75210;52.210;20.902;2024-01-30T00:25:29;102097.94;;;1.14;82.98
84936;BME280;75210;52.210;20.902;2024-01-30T00:26:30;102086.59;;;1.09;83.10
84936;BME280;75210;52.210;20.902;2024-01-30T00:27:30;102090.06;;;1.08;83.01
84936;BME280;75210;52.210;20.902;2024-01-30T00:28:30;102095.13;;;0.99;83.62
84936;BME280;75210;52.210;20.902;2024-01-30T00:29:31;102090.06;;;1.08;83.24
84936;BME280;75210;52.210;20.902;2024-01-30T00:30:31;102084.75;;;1.02;83.64
84936;BME280;75210;52.210;20.902;2024-01-30T00:31:35;102058.50;;;0.84;83.17
84936;BME280;75210;52.210;20.902;2024-01-30T00:32:35;102077.78;;;0.98;83.15
84936;BME280;75210;52.210;20.902;2024-01-30T00:33:35;102070.69;;;0.88;83.21
84936;BME280;75210;52.210;20.902;2024-01-30T00:34:36;102090.03;;;1.06;83.41
84936;BME280;75210;52.210;20.902;2024-01-30T00:35:36;102095.97;;;0.98;83.47
84936;BME280;75210;52.210;20.902;2024-01-30T00:36:37;102091.72;;;1.04;83.12
84936;BME280;75210;52.210;20.902;2024-01-30T00:37:37;102062.00;;;0.87;83.24
84936;BME280;75210;52.210;20.902;2024-01-30T00:38:38;102045.50;;;0.82;83.17
84936;BME280;75210;52.210;20.902;2024-01-30T00:39:40;102061.13;;;0.87;83.21
84936;BME280;75210;52.210;20.902;2024-01-30T00:40:41;102053.28;;;0.82;83.54
84936;BME280;75210;52.210;20.902;2024-01-30T00:41:41;102023.47;;;0.57;83.68
84936;BME280;75210;52.210;20.902;2024-01-30T00:42:42;102095.16;;;1.02;83.34
84936;BME280;75210;52.210;20.902;2024-01-30T00:43:42;102076.81;;;0.91;83.25
84936;BME280;75210;52.210;20.902;2024-01-30T00:44:43;102035.72;;;0.66;83.31
84936;BME280;75210;52.210;20.902;2024-01-30T00:45:43;102097.75;;;1.02;83.63
84936;BME280;75210;52.210;20.902;2024-01-30T00:46:44;102078.56;;;0.94;83.19
84936;BME280;75210;52.210;20.902;2024-01-30T00:47:44;102086.44;;;0.98;82.68
84936;BME280;75210;52.210;20.902;2024-01-30T00:48:45;102107.22;;;1.00;83.51
84936;BME280;75210;52.210;20.902;2024-01-30T00:49:45;102072.38;;;0.84;83.82
84936;BME280;75210;52.210;20.902;2024-01-30T00:50:45;102109.00;;;1.02;83.34
84936;BME280;75210;52.210;20.902;2024-01-30T00:51:46;102037.53;;;0.70;83.59
84936;BME280;75210;52.210;20.902;2024-01-30T00:52:46;102098.66;;;1.04;83.61
84936;BME280;75210;52.210;20.902;2024-01-30T00:53:47;102061.00;;;0.78;83.04
84936;BME280;75210;52.210;20.902;2024-01-30T00:54:49;102106.41;;;1.02;83.53
84936;BME280;75210;52.210;20.902;2024-01-30T00:55:49;102104.63;;;1.00;83.13
84936;BME280;75210;52.210;20.902;2024-01-30T00:56:50;102104.59;;;0.97;83.64
84936;BME280;75210;52.210;20.902;2024-01-30T00:57:50;102102.88;;;0.97;83.45
84936;BME280;75210;52.210;20.902;2024-01-30T00:58:50;102101.97;;;0.95;83.91
84936;BME280;75210;52.210;20.902;2024-01-30T00:59:51;102106.31;;;0.95;83.84
84936;BME280;75210;52.210;20.902;2024-01-30T01:00:51;102090.78;;;0.98;83.60
84936;BME280;75210;52.210;20.902;2024-01-30T01:01:52;102094.16;;;0.94;83.56
84936;BME280;75210;52.210;20.902;2024-01-30T01:02:52;102081.97;;;0.90;83.71
84936;BME280;75210;52.210;20.902;2024-01-30T01:03:52;102089.78;;;0.91;83.16
84936;BME280;75210;52.210;20.902;2024-01-30T01:04:53;102096.72;;;0.92;83.31
84936;BME280;75210;52.210;20.902;2024-01-30T01:05:53;102094.13;;;0.92;83.35
84936;BME280;75210;52.210;20.902;2024-01-30T01:06:54;102072.38;;;0.84;83.40
84936;BME280;75210;52.210;20.902;2024-01-30T01:07:54;102093.28;;;0.93;83.14
84936;BME280;75210;52.210;20.902;2024-01-30T01:08:54;102093.28;;;0.93;83.32
84936;BME280;75210;52.210;20.902;2024-01-30T01:09:56;102101.78;;;0.83;83.30
84936;BME280;75210;52.210;20.902;2024-01-30T01:10:57;102099.09;;;0.79;84.06
84936;BME280;75210;52.210;20.902;2024-01-30T01:11:57;102095.63;;;0.78;83.95
84936;BME280;75210;52.210;20.902;2024-01-30T01:12:58;102095.66;;;0.80;83.55
84936;BME280;75210;52.210;20.902;2024-01-30T01:13:58;102105.25;;;0.84;83.47
84936;BME280;75210;52.210;20.902;2024-01-30T01:15:00;102097.47;;;0.84;83.06
84936;BME280;75210;52.210;20.902;2024-01-30T01:16:00;102071.28;;;0.70;82.95
84936;BME280;75210;52.210;20.902;2024-01-30T01:17:01;102052.09;;;0.60;82.87
84936;BME280;75210;52.210;20.902;2024-01-30T01:18:01;102090.56;;;0.84;82.91
84936;BME280;75210;52.210;20.902;2024-01-30T01:19:02;102006.53;;;0.28;83.04
84936;BME280;75210;52.210;20.902;2024-01-30T01:20:02;102085.94;;;0.68;83.15
84936;BME280;75210;52.210;20.902;2024-01-30T01:21:03;102099.09;;;0.79;83.35
84936;BME280;75210;52.210;20.902;2024-01-30T01:22:03;102076.38;;;0.65;83.53
84936;BME280;75210;52.210;20.902;2024-01-30T01:23:03;102084.31;;;0.75;83.05
84936;BME280;75210;52.210;20.902;2024-01-30T01:24:04;102075.59;;;0.69;83.09
84936;BME280;75210;52.210;20.902;2024-01-30T01:25:07;102084.25;;;0.70;83.28
84936;BME280;75210;52.210;20.902;2024-01-30T01:26:07;102093.00;;;0.77;83.73
84936;BME280;75210;52.210;20.902;2024-01-30T01:27:08;102090.41;;;0.77;83.83
84936;BME280;75210;52.210;20.902;2024-01-30T01:28:08;102088.72;;;0.79;83.31
84936;BME280;75210;52.210;20.902;2024-01-30T01:29:08;102085.97;;;0.69;83.48
84936;BME280;75210;52.210;20.902;2024-01-30T01:30:10;102033.53;;;0.36;84.13
84936;BME280;75210;52.210;20.902;2024-01-30T01:31:11;102092.00;;;0.67;83.65
84936;BME280;75210;52.210;20.902;2024-01-30T01:32:11;102091.94;;;0.64;83.78
84936;BME280;75210;52.210;20.902;2024-01-30T01:33:11;102092.84;;;0.66;83.84
84936;BME280;75210;52.210;20.902;2024-01-30T01:34:12;102091.16;;;0.68;83.37
84936;BME280;75210;52.210;20.902;2024-01-30T01:35:13;102059.66;;;0.47;83.93
84936;BME280;75210;52.210;20.902;2024-01-30T01:36:13;102061.38;;;0.46;83.80
84936;BME280;75210;52.210;20.902;2024-01-30T01:37:14;102083.19;;;0.57;83.62
84936;BME280;75210;52.210;20.902;2024-01-30T01:38:14;102093.63;;;0.60;84.24
84936;BME280;75210;52.210;20.902;2024-01-30T01:39:15;102029.00;;;0.26;83.98
84936;BME280;75210;52.210;20.902;2024-01-30T01:40:18;102079.75;;;0.58;84.13
84936;BME280;75210;52.210;20.902;2024-01-30T01:41:18;102082.41;;;0.61;84.38
84936;BME280;75210;52.210;20.902;2024-01-30T01:42:18;102073.66;;;0.56;84.42
84936;BME280;75210;52.210;20.902;2024-01-30T01:43:19;102084.19;;;0.65;84.02
84936;BME280;75210;52.210;20.902;2024-01-30T01:44:19;102077.22;;;0.64;84.60
84936;BME280;75210;52.210;20.902;2024-01-30T01:45:21;102074.59;;;0.61;84.49
84936;BME280;75210;52.210;20.902;2024-01-30T01:46:21;102061.44;;;0.49;84.51
84936;BME280;75210;52.210;20.902;2024-01-30T01:47:22;102077.19;;;0.60;84.72
84936;BME280;75210;52.210;20.902;2024-01-30T01:48:23;102075.44;;;0.60;84.83
84936;BME280;75210;52.210;20.902;2024-01-30T01:49:25;102074.59;;;0.63;84.34
84936;BME280;75210;52.210;20.902;2024-01-30T01:50:26;102037.94;;;0.43;84.13
84936;BME280;75210;52.210;20.902;2024-01-30T01:51:29;102017.84;;;0.31;84.09
84936;BME280;75210;52.210;20.902;2024-01-30T01:52:30;102071.31;;;0.71;84.58
84936;BME280;75210;52.210;20.902;2024-01-30T01:53:30;101984.75;;;0.17;84.22
84936;BME280;75210;52.210;20.902;2024-01-30T01:54:32;102071.25;;;0.68;84.53
84936;BME280;75210;52.210;20.902;2024-01-30T01:55:35;102067.81;;;0.69;84.08
84936;BME280;75210;52.210;20.902;2024-01-30T01:56:36;102062.56;;;0.66;84.21
84936;BME280;75210;52.210;20.902;2024-01-30T01:57:37;102027.59;;;0.45;84.21
84936;BME280;75210;52.210;20.902;2024-01-30T01:58:37;102032.84;;;0.48;84.04
84936;BME280;75210;52.210;20.902;2024-01-30T01:59:38;102059.13;;;0.67;84.13
84936;BME280;75210;52.210;20.902;2024-01-30T02:00:39;102015.44;;;0.42;84.43
84936;BME280;75210;52.210;20.902;2024-01-30T02:01:39;102035.63;;;0.60;84.51
84936;BME280;75210;52.210;20.902;2024-01-30T02:02:41;102036.59;;;0.66;84.14
84936;BME280;75210;52.210;20.902;2024-01-30T02:03:44;102052.31;;;0.76;84.24
84936;BME280;75210;52.210;20.902;2024-01-30T02:04:45;102058.34;;;0.73;84.08
84936;BME280;75210;52.210;20.902;2024-01-30T02:05:46;102040.06;;;0.67;83.93
84936;BME280;75210;52.210;20.902;2024-01-30T02:06:47;102058.34;;;0.73;84.35
84936;BME280;75210;52.210;20.902;2024-01-30T02:07:47;102035.72;;;0.66;84.34
84936;BME280;75210;52.210;20.902;2024-01-30T02:08:48;102045.38;;;0.76;84.11
84936;BME280;75210;52.210;20.902;2024-01-30T02:09:48;102051.44;;;0.75;83.82
84936;BME280;75210;52.210;20.902;2024-01-30T02:10:50;102051.50;;;0.78;83.98
84936;BME280;75210;52.210;20.902;2024-01-30T02:11:51;102034.03;;;0.68;84.12
84936;BME280;75210;52.210;20.902;2024-01-30T02:12:51;102027.19;;;0.75;83.56
84936;BME280;75210;52.210;20.902;2024-01-30T02:13:52;102036.00;;;0.84;83.49
84936;BME280;75210;52.210;20.902;2024-01-30T02:14:52;102048.22;;;0.91;83.46
84936;BME280;75210;52.210;20.902;2024-01-30T02:15:53;102029.91;;;0.81;83.20
84936;BME280;75210;52.210;20.902;2024-01-30T02:16:53;102034.31;;;0.88;83.52
84936;BME280;75210;52.210;20.902;2024-01-30T02:17:54;102045.66;;;0.93;83.14
84936;BME280;75210;52.210;20.902;2024-01-30T02:18:54;101974.03;;;0.48;83.45
84936;BME280;75210;52.210;20.902;2024-01-30T02:19:54;102042.25;;;0.97;83.02
84936;BME280;75210;52.210;20.902;2024-01-30T02:20:58;102041.31;;;0.92;83.05
84936;BME280;75210;52.210;20.902;2024-01-30T02:22:02;101970.59;;;0.49;83.26
84936;BME280;75210;52.210;20.902;2024-01-30T02:23:03;102032.31;;;0.68;83.50
84936;BME280;75210;52.210;20.902;2024-01-30T02:24:04;102033.25;;;0.74;83.73
84936;BME280;75210;52.210;20.902;2024-01-30T02:25:06;102042.03;;;0.82;83.78
84936;BME280;75210;52.210;20.902;2024-01-30T02:26:06;102040.38;;;0.85;83.67
84936;BME280;75210;52.210;20.902;2024-01-30T02:27:07;102015.81;;;0.66;83.15
84936;BME280;75210;52.210;20.902;2024-01-30T02:28:07;102048.13;;;0.84;83.66
84936;BME280;75210;52.210;20.902;2024-01-30T02:29:07;101982.69;;;0.50;83.38
84936;BME280;75210;52.210;20.902;2024-01-30T02:30:09;102042.09;;;0.88;83.24
84936;BME280;75210;52.210;20.902;2024-01-30T02:31:09;102038.59;;;0.83;83.14
84936;BME280;75210;52.210;20.902;2024-01-30T02:32:10;102046.44;;;0.89;83.60
84936;BME280;75210;52.210;20.902;2024-01-30T02:33:10;102044.75;;;0.91;83.45
84936;BME280;75210;52.210;20.902;2024-01-30T02:34:11;101992.41;;;0.63;82.94
84936;BME280;75210;52.210;20.902;2024-01-30T02:35:11;102024.66;;;0.78;82.76
84936;BME280;75210;52.210;20.902;2024-01-30T02:36:12;102052.53;;;0.89;83.36
84936;BME280;75210;52.210;20.902;2024-01-30T02:37:14;102047.28;;;0.85;83.46
84936;BME280;75210;52.210;20.902;2024-01-30T02:38:15;102048.94;;;0.81;83.31
84936;BME280;75210;52.210;20.902;2024-01-30T02:39:15;102051.59;;;0.84;83.21
84936;BME280;75210;52.210;20.902;2024-01-30T02:40:16;102052.47;;;0.85;82.96
84936;BME280;75210;52.210;20.902;2024-01-30T02:41:16;102034.16;;;0.77;82.72
84936;BME280;75210;52.210;20.902;2024-01-30T02:42:16;102035.94;;;0.80;83.23
84936;BME280;75210;52.210;20.902;2024-01-30T02:43:17;102052.50;;;0.88;82.80
84936;BME280;75210;52.210;20.902;2024-01-30T02:44:18;102053.34;;;0.85;82.96
84936;BME280;75210;52.210;20.902;2024-01-30T02:45:18;102057.66;;;0.85;83.38
84936;BME280;75210;52.210;20.902;2024-01-30T02:46:18;102055.94;;;0.85;83.20
84936;BME280;75210;52.210;20.902;2024-01-30T02:47:19;102046.41;;;0.84;82.99
84936;BME280;75210;52.210;20.902;2024-01-30T02:48:19;102056.00;;;0.90;83.37
84936;BME280;75210;52.210;20.902;2024-01-30T02:49:20;102044.50;;;0.76;83.34
84936;BME280;75210;52.210;20.902;2024-01-30T02:50:20;102061.13;;;0.84;82.99
84936;BME280;75210;52.210;20.902;2024-01-30T02:51:21;102061.13;;;0.84;83.44
84936;BME280;75210;52.210;20.902;2024-01-30T02:52:23;102055.00;;;0.82;83.06
84936;BME280;75210;52.210;20.902;2024-01-30T02:53:24;102054.28;;;0.90;83.34
84936;BME280;75210;52.210;20.902;2024-01-30T02:54:24;102051.63;;;0.87;83.36
84936;BME280;75210;52.210;20.902;2024-01-30T02:55:24;102059.38;;;0.83;83.56
84936;BME280;75210;52.210;20.902;2024-01-30T02:56:25;102055.03;;;0.83;83.69
84936;BME280;75210;52.210;20.902;2024-01-30T02:57:25;101979.88;;;0.38;83.30
84936;BME280;75210;52.210;20.902;2024-01-30T02:58:26;102055.88;;;0.82;83.33
84936;BME280;75210;52.210;20.902;2024-01-30T02:59:26;102055.88;;;0.81;83.23
84936;BME280;75210;52.210;20.902;2024-01-30T03:00:26;102045.38;;;0.76;83.64
84936;BME280;75210;52.210;20.902;2024-01-30T03:01:27;102048.13;;;0.84;82.99
84936;BME280;75210;52.210;20.902;2024-01-30T03:02:27;102058.44;;;0.79;83.62
84936;BME280;75210;52.210;20.902;2024-01-30T03:03:28;102048.97;;;0.83;82.92
84936;BME280;75210;52.210;20.902;2024-01-30T03:04:28;102051.53;;;0.81;83.02
84936;BME280;75210;52.210;20.902;2024-01-30T03:05:28;102043.66;;;0.77;83.54
84936;BME280;75210;52.210;20.902;2024-01-30T03:06:29;102051.53;;;0.81;83.11
84936;BME280;75210;52.210;20.902;2024-01-30T03:07:31;102050.75;;;0.85;83.24
84936;BME280;75210;52.210;20.902;2024-01-30T03:08:31;102049.88;;;0.85;83.25
84936;BME280;75210;52.210;20.902;2024-01-30T03:09:32;102042.94;;;0.84;83.04
84936;BME280;75210;52.210;20.902;2024-01-30T03:10:32;102050.63;;;0.79;83.71
84936;BME280;75210;52.210;20.902;2024-01-30T03:11:32;102047.16;;;0.79;83.32
84936;BME280;75210;52.210;20.902;2024-01-30T03:12:33;102048.97;;;0.83;83.22
84936;BME280;75210;52.210;20.902;2024-01-30T03:13:33;102049.03;;;0.87;82.69
84936;BME280;75210;52.210;20.902;2024-01-30T03:14:34;101995.88;;;0.64;82.66
84936;BME280;75210;52.210;20.902;2024-01-30T03:15:34;101973.06;;;0.43;83.00
84936;BME280;75210;52.210;20.902;2024-01-30T03:16:35;102052.50;;;0.86;82.70
84936;BME280;75210;52.210;20.902;2024-01-30T03:17:35;102053.31;;;0.84;82.91
84936;BME280;75210;52.210;20.902;2024-01-30T03:18:35;101999.19;;;0.54;82.82
84936;BME280;75210;52.210;20.902;2024-01-30T03:19:36;102041.91;;;0.76;82.91
84936;BME280;75210;52.210;20.902;2024-01-30T03:20:36;102056.81;;;0.87;82.74
84936;BME280;75210;52.210;20.902;2024-01-30T03:21:37;102018.44;;;0.68;82.63
84936;BME280;75210;52.210;20.902;2024-01-30T03:22:39;102052.41;;;0.82;82.60
84936;BME280;75210;52.210;20.902;2024-01-30T03:23:39;101963.41;;;0.33;82.80
84936;BME280;75210;52.210;20.902;2024-01-30T03:24:39;102053.31;;;0.84;83.09
84936;BME280;75210;52.210;20.902;2024-01-30T03:25:40;101998.31;;;0.53;82.77
84936;BME280;75210;52.210;20.902;2024-01-30T03:26:40;102013.94;;;0.56;82.38
84936;BME280;75210;52.210;20.902;2024-01-30T03:27:41;102051.41;;;0.72;83.12
84936;BME280;75210;52.210;20.902;2024-01-30T03:28:41;102029.47;;;0.53;83.56
84936;BME280;75210;52.210;20.902;2024-01-30T03:29:42;102059.06;;;0.64;83.27
84936;BME280;75210;52.210;20.902;2024-01-30T03:30:42;102049.56;;;0.66;83.08
84936;BME280;75210;52.210;20.902;2024-01-30T03:31:42;102033.06;;;0.61;83.08
84936;BME280;75210;52.210;20.902;2024-01-30T03:32:43;102051.34;;;0.69;83.50
84936;BME280;75210;52.210;20.902;2024-01-30T03:33:43;101999.75;;;0.34;83.14
84936;BME280;75210;52.210;20.902;2024-01-30T03:34:44;102049.66;;;0.71;83.16
84936;BME280;75210;52.210;20.902;2024-01-30T03:35:44;102022.50;;;0.49;82.97
84936;BME280;75210;52.210;20.902;2024-01-30T03:36:44;102041.75;;;0.65;83.23
84936;BME280;75210;52.210;20.902;2024-01-30T03:37:46;102049.53;;;0.65;83.08
84936;BME280;75210;52.210;20.902;2024-01-30T03:38:47;102036.59;;;0.66;83.22
84936;BME280;75210;52.210;20.902;2024-01-30T03:39:47;102034.94;;;0.70;83.32
84936;BME280;75210;52.210;20.902;2024-01-30T03:40:48;102041.88;;;0.71;83.35
84936;BME280;75210;52.210;20.902;2024-01-30T03:41:48;102007.13;;;0.61;83.02
84936;BME280;75210;52.210;20.902;2024-01-30T03:42:48;102013.16;;;0.63;82.35
84936;BME280;75210;52.210;20.902;2024-01-30T03:43:50;102032.41;;;0.76;82.46
84936;BME280;75210;52.210;20.902;2024-01-30T03:44:50;102038.44;;;0.75;82.69
84936;BME280;75210;52.210;20.902;2024-01-30T03:45:51;102012.31;;;0.64;82.88
84936;BME280;75210;52.210;20.902;2024-01-30T03:46:51;102037.56;;;0.73;82.64
84936;BME280;75210;52.210;20.902;2024-01-30T03:47:52;102034.84;;;0.65;83.14
84936;BME280;75210;52.210;20.902;2024-01-30T03:48:52;102038.25;;;0.61;83.01
84936;BME280;75210;52.210;20.902;2024-01-30T03:49:52;102037.47;;;0.67;83.07
84936;BME280;75210;52.210;20.902;2024-01-30T03:50:53;102038.44;;;0.72;83.20
84936;BME280;75210;52.210;20.902;2024-01-30T03:51:53;102032.28;;;0.67;83.05
84936;BME280;75210;52.210;20.902;2024-01-30T03:52:55;102012.19;;;0.55;83.21
84936;BME280;75210;52.210;20.902;2024-01-30T03:53:56;102040.06;;;0.67;83.23
84936;BME280;75210;52.210;20.902;2024-01-30T03:54:56;102034.81;;;0.64;83.18
84936;BME280;75210;52.210;20.902;2024-01-30T03:55:57;102037.50;;;0.68;82.96
84936;BME280;75210;52.210;20.902;2024-01-30T03:56:57;102030.50;;;0.64;83.20
84936;BME280;75210;52.210;20.902;2024-01-30T03:57:57;102041.72;;;0.63;83.25
84936;BME280;75210;52.210;20.902;2024-01-30T03:58:58;101994.75;;;0.47;82.98
84936;BME280;75210;52.210;20.902;2024-01-30T03:59:58;102014.91;;;0.61;82.80
84936;BME280;75210;52.210;20.902;2024-01-30T04:00:59;102033.19;;;0.69;83.02
84936;BME280;75210;52.210;20.902;2024-01-30T04:01:59;102039.13;;;0.63;83.17
84936;BME280;75210;52.210;20.902;2024-01-30T04:03:00;101982.28;;;0.26;83.44
84936;BME280;75210;52.210;20.902;2024-01-30T04:04:00;102038.16;;;0.55;83.54
84936;BME280;75210;52.210;20.902;2024-01-30T04:05:00;102036.47;;;0.57;83.49
84936;BME280;75210;52.210;20.902;2024-01-30T04:06:01;102036.50;;;0.60;82.95
84936;BME280;75210;52.210;20.902;2024-01-30T04:07:01;102033.94;;;0.63;83.05
84936;BME280;75210;52.210;20.902;2024-01-30T04:08:04;102013.81;;;0.47;83.08
84936;BME280;75210;52.210;20.902;2024-01-30T04:09:05;101994.63;;;0.39;82.75
84936;BME280;75210;52.210;20.902;2024-01-30T04:10:06;102029.69;;;0.67;82.68
84936;BME280;75210;52.210;20.902;2024-01-30T04:11:07;102010.34;;;0.50;82.66
84936;BME280;75210;52.210;20.902;2024-01-30T04:12:07;102034.06;;;0.69;82.81
84936;BME280;75210;52.210;20.902;2024-01-30T04:13:08;102026.25;;;0.68;82.46
84936;BME280;75210;52.210;20.902;2024-01-30T04:14:08;102028.72;;;0.62;82.96
84936;BME280;75210;52.210;20.902;2024-01-30T04:15:09;102027.03;;;0.64;82.83
84936;BME280;75210;52.210;20.902;2024-01-30T04:16:19;101999.81;;;0.39;82.77
84936;BME280;75210;52.210;20.902;2024-01-30T04:17:19;102032.06;;;0.53;83.17
84936;BME280;75210;52.210;20.902;2024-01-30T04:18:20;102031.09;;;0.47;83.11
84936;BME280;75210;52.210;20.902;2024-01-30T04:19:20;102005.13;;;0.45;83.14
84936;BME280;75210;52.210;20.902;2024-01-30T04:20:21;102032.19;;;0.62;83.08
84936;BME280;75210;52.210;20.902;2024-01-30T04:21:21;102028.63;;;0.54;82.98
84936;BME280;75210;52.210;20.902;2024-01-30T04:22:22;101995.44;;;0.35;83.42
84936;BME280;75210;52.210;20.902;2024-01-30T04:23:30;102026.03;;;0.56;82.78
84936;BME280;75210;52.210;20.902;2024-01-30T04:24:30;102012.94;;;0.50;82.70
84936;BME280;75210;52.210;20.902;2024-01-30T04:25:31;102005.25;;;0.54;82.37
84936;BME280;75210;52.210;20.902;2024-01-30T04:26:31;101986.91;;;0.44;82.07
84936;BME280;75210;52.210;20.902;2024-01-30T04:27:31;102030.44;;;0.60;82.47
84936;BME280;75210;52.210;20.902;2024-01-30T04:28:32;101961.53;;;0.26;82.37
84936;BME280;75210;52.210;20.902;2024-01-30T04:29:32;102022.63;;;0.58;82.42
84936;BME280;75210;52.210;20.902;2024-01-30T04:30:33;102035.72;;;0.66;82.45
84936;BME280;75210;52.210;20.902;2024-01-30T04:31:33;102024.25;;;0.53;83.17
84936;BME280;75210;52.210;20.902;2024-01-30T04:32:36;102019.03;;;0.52;82.95
84936;BME280;75210;52.210;20.902;2024-01-30T04:33:37;102034.97;;;0.71;82.28
84936;BME280;75210;52.210;20.902;2024-01-30T04:34:37;102033.16;;;0.67;82.32
84936;BME280;75210;52.210;20.902;2024-01-30T04:35:37;102034.84;;;0.65;82.42
84936;BME280;75210;52.210;20.902;2024-01-30T04:36:38;102040.94;;;0.67;82.55
84936;BME280;75210;52.210;20.902;2024-01-30T04:37:38;102031.31;;;0.62;82.68
84936;BME280;75210;52.210;20.902;2024-01-30T04:38:40;102013.88;;;0.53;82.55
84936;BME280;75210;52.210;20.902;2024-01-30T04:39:41;102033.09;;;0.64;82.71
84936;BME280;75210;52.210;20.902;2024-01-30T04:40:41;102000.81;;;0.47;82.75
84936;BME280;75210;52.210;20.902;2024-01-30T04:41:42;102039.19;;;0.66;82.44
84936;BME280;75210;52.210;20.902;2024-01-30T04:42:42;102012.88;;;0.44;82.97
84936;BME280;75210;52.210;20.902;2024-01-30T04:43:42;102035.66;;;0.61;82.94
84936;BME280;75210;52.210;20.902;2024-01-30T04:44:43;101995.56;;;0.43;82.41
84936;BME280;75210;52.210;20.902;2024-01-30T04:45:43;102027.00;;;0.61;82.64
84936;BME280;75210;52.210;20.902;2024-01-30T04:46:44;102031.41;;;0.66;82.23
84936;BME280;75210;52.210;20.902;2024-01-30T04:47:44;102024.25;;;0.53;83.10
84936;BME280;75210;52.210;20.902;2024-01-30T04:48:44;101966.63;;;0.20;82.56
84936;BME280;75210;52.210;20.902;2024-01-30T04:49:45;101965.72;;;0.16;82.70
84936;BME280;75210;52.210;20.902;2024-01-30T04:50:45;102029.47;;;0.53;83.13
84936;BME280;75210;52.210;20.902;2024-01-30T04:51:46;102026.88;;;0.55;82.88
84936;BME280;75210;52.210;20.902;2024-01-30T04:52:46;101994.69;;;0.44;82.60
84936;BME280;75210;52.210;20.902;2024-01-30T04:53:48;102017.38;;;0.55;82.16
84936;BME280;75210;52.210;20.902;2024-01-30T04:54:48;102026.16;;;0.63;82.52
84936;BME280;75210;52.210;20.902;2024-01-30T04:55:49;101990.34;;;0.43;82.40
84936;BME280;75210;52.210;20.902;2024-01-30T04:56:49;102018.38;;;0.65;82.52
84936;BME280;75210;52.210;20.902;2024-01-30T04:57:50;101973.91;;;0.42;82.00
84936;BME280;75210;52.210;20.902;2024-01-30T04:58:50;102015.78;;;0.63;81.79
84936;BME280;75210;52.210;20.902;2024-01-30T04:59:51;102024.47;;;0.65;82.40
84936;BME280;75210;52.210;20.902;2024-01-30T05:00:51;102021.88;;;0.65;82.39
84936;BME280;75210;52.210;20.902;2024-01-30T05:01:51;102003.50;;;0.53;82.19
84936;BME280;75210;52.210;20.902;2024-01-30T05:02:52;102015.78;;;0.63;82.47
84936;BME280;75210;52.210;20.902;2024-01-30T05:03:52;102015.03;;;0.70;81.91
84936;BME280;75210;52.210;20.902;2024-01-30T05:04:53;102024.59;;;0.73;81.66
84936;BME280;75210;52.210;20.902;2024-01-30T05:05:53;102026.25;;;0.68;81.93
84936;BME280;75210;52.210;20.902;2024-01-30T05:06:54;101981.59;;;0.34;82.41
84936;BME280;75210;52.210;20.902;2024-01-30T05:07:55;102024.50;;;0.67;82.28
84936;BME280;75210;52.210;20.902;2024-01-30T05:08:57;102021.88;;;0.65;82.14
84936;BME280;75210;52.210;20.902;2024-01-30T05:09:57;102024.53;;;0.70;82.08
84936;BME280;75210;52.210;20.902;2024-01-30T05:11:00;102024.50;;;0.68;82.08
84936;BME280;75210;52.210;20.902;2024-01-30T05:12:00;102019.25;;;0.65;82.06
84936;BME280;75210;52.210;20.902;2024-01-30T05:13:01;102027.91;;;0.64;82.46
84936;BME280;75210;52.210;20.902;2024-01-30T05:14:01;102020.97;;;0.63;82.36
84936;BME280;75210;52.210;20.902;2024-01-30T05:15:02;101975.56;;;0.39;82.54
84936;BME280;75210;52.210;20.902;2024-01-30T05:16:03;102022.69;;;0.61;82.10
84936;BME280;75210;52.210;20.902;2024-01-30T05:17:03;101984.28;;;0.42;82.65
84936;BME280;75210;52.210;20.902;2024-01-30T05:18:04;102014.00;;;0.59;82.73